sensor_id;sensor_type;location;lat;lon;timestamp;P1;durP1;ratioP1;P2;durP2;ratioP2
59042;SDS011;44826;51.596;5.624;2022-12-17T00:01:39;31.87;;;14.87;;
59042;SDS011;44826;51.596;5.624;2022-12-17T00:04:23;31.90;;;15.13;;
59042;SDS011;44826;51.596;5.624;2022-12-17T00:07:07;33.80;;;15.83;;
59042;SDS011;44826;51.596;5.624;2022-12-17T00:09:51;33.57;;;15.80;;
59042;SDS011;44826;51.596;5.624;2022-12-17T00:12:35;32.50;;;15.23;;
59042;SDS011;44826;51.596;5.624;2022-12-17T00:15:19;34.33;;;15.00;;
59042;SDS011;44826;51.596;5.624;2022-12-17T00:18:04;34.73;;;16.53;;
59042;SDS011;44826;51.596;5.624;2022-12-17T00:20:51;34.77;;;15.60;;
59042;SDS011;44826;51.596;5.624;2022-12-17T00:23:35;33.33;;;15.97;;
59042;SDS011;44826;51.596;5.624;2022-12-17T00:26:19;31.97;;;14.87;;
59042;SDS011;44826;51.596;5.624;2022-12-17T00:29:03;34.20;;;15.53;;
59042;SDS011;44826;51.596;5.624;2022-12-17T00:31:47;33.73;;;15.23;;
59042;SDS011;44826;51.596;5.624;2022-12-17T00:34:31;35.00;;;15.03;;
59042;SDS011;44826;51.596;5.624;2022-12-17T00:37:14;34.60;;;15.53;;
59042;SDS011;44826;51.596;5.624;2022-12-17T00:39:58;32.43;;;14.13;;
59042;SDS011;44826;51.596;5.624;2022-12-17T00:45:48;33.10;;;14.87;;
59042;SDS011;44826;51.596;5.624;2022-12-17T00:48:32;31.43;;;13.87;;
59042;SDS011;44826;51.596;5.624;2022-12-17T00:51:16;33.10;;;14.93;;
59042;SDS011;44826;51.596;5.624;2022-12-17T00:53:59;30.20;;;14.23;;
59042;SDS011;44826;51.596;5.624;2022-12-17T00:56:43;31.83;;;14.03;;
59042;SDS011;44826;51.596;5.624;2022-12-17T00:59:27;28.80;;;13.93;;
59042;SDS011;44826;51.596;5.624;2022-12-17T01:02:11;31.50;;;14.33;;
59042;SDS011;44826;51.596;5.624;2022-12-17T01:04:55;32.60;;;14.33;;
59042;SDS011;44826;51.596;5.624;2022-12-17T01:07:39;32.23;;;14.03;;
59042;SDS011;44826;51.596;5.624;2022-12-17T01:10:23;30.17;;;13.37;;
59042;SDS011;44826;51.596;5.624;2022-12-17T01:13:07;33.93;;;14.70;;
59042;SDS011;44826;51.596;5.624;2022-12-17T01:15:51;36.80;;;15.10;;
59042;SDS011;44826;51.596;5.624;2022-12-17T01:18:35;34.50;;;14.43;;
59042;SDS011;44826;51.596;5.624;2022-12-17T01:21:19;33.23;;;14.63;;
59042;SDS011;44826;51.596;5.624;2022-12-17T01:24:03;31.23;;;14.07;;
59042;SDS011;44826;51.596;5.624;2022-12-17T01:26:47;30.50;;;13.13;;
59042;SDS011;44826;51.596;5.624;2022-12-17T01:29:30;33.73;;;14.70;;
59042;SDS011;44826;51.596;5.624;2022-12-17T01:32:14;33.77;;;13.97;;
59042;SDS011;44826;51.596;5.624;2022-12-17T01:34:58;31.33;;;12.73;;
59042;SDS011;44826;51.596;5.624;2022-12-17T01:37:42;27.97;;;12.33;;
59042;SDS011;44826;51.596;5.624;2022-12-17T01:40:27;31.37;;;13.77;;
59042;SDS011;44826;51.596;5.624;2022-12-17T01:43:32;33.07;;;14.23;;
59042;SDS011;44826;51.596;5.624;2022-12-17T01:46:17;31.42;;;13.90;;
59042;SDS011;44826;51.596;5.624;2022-12-17T01:49:02;29.97;;;13.47;;
59042;SDS011;44826;51.596;5.624;2022-12-17T01:51:46;31.13;;;13.83;;
59042;SDS011;44826;51.596;5.624;2022-12-17T01:54:34;29.83;;;13.20;;
59042;SDS011;44826;51.596;5.624;2022-12-17T01:57:18;30.43;;;13.20;;
59042;SDS011;44826;51.596;5.624;2022-12-17T02:00:06;30.30;;;13.27;;
59042;SDS011;44826;51.596;5.624;2022-12-17T02:02:53;28.93;;;13.13;;
59042;SDS011;44826;51.596;5.624;2022-12-17T02:05:41;34.17;;;14.00;;
59042;SDS011;44826;51.596;5.624;2022-12-17T02:11:38;34.07;;;14.60;;
59042;SDS011;44826;51.596;5.624;2022-12-17T02:14:44;32.27;;;14.53;;
59042;SDS011;44826;51.596;5.624;2022-12-17T02:17:37;31.87;;;14.03;;
59042;SDS011;44826;51.596;5.624;2022-12-17T02:20:29;32.60;;;13.57;;
59042;SDS011;44826;51.596;5.624;2022-12-17T02:23:20;32.45;;;13.93;;
59042;SDS011;44826;51.596;5.624;2022-12-17T02:26:29;31.60;;;14.47;;
59042;SDS011;44826;51.596;5.624;2022-12-17T02:29:18;30.20;;;13.27;;
59042;SDS011;44826;51.596;5.624;2022-12-17T02:32:04;33.90;;;15.03;;
59042;SDS011;44826;51.596;5.624;2022-12-17T02:34:49;30.53;;;12.77;;
59042;SDS011;44826;51.596;5.624;2022-12-17T02:37:34;32.73;;;13.70;;
59042;SDS011;44826;51.596;5.624;2022-12-17T02:40:18;34.63;;;14.10;;
59042;SDS011;44826;51.596;5.624;2022-12-17T02:43:05;33.80;;;14.40;;
59042;SDS011;44826;51.596;5.624;2022-12-17T02:45:50;32.57;;;14.37;;
59042;SDS011;44826;51.596;5.624;2022-12-17T02:48:34;33.33;;;14.20;;
59042;SDS011;44826;51.596;5.624;2022-12-17T02:51:18;36.10;;;15.30;;
59042;SDS011;44826;51.596;5.624;2022-12-17T02:54:04;35.23;;;15.27;;
59042;SDS011;44826;51.596;5.624;2022-12-17T02:56:47;36.00;;;15.50;;
59042;SDS011;44826;51.596;5.624;2022-12-17T02:59:31;35.67;;;14.70;;
59042;SDS011;44826;51.596;5.624;2022-12-17T03:02:15;33.67;;;15.00;;
59042;SDS011;44826;51.596;5.624;2022-12-17T03:04:59;33.20;;;14.57;;
59042;SDS011;44826;51.596;5.624;2022-12-17T03:07:43;34.17;;;14.63;;
59042;SDS011;44826;51.596;5.624;2022-12-17T03:10:27;38.83;;;15.77;;
59042;SDS011;44826;51.596;5.624;2022-12-17T03:13:24;34.03;;;14.97;;
59042;SDS011;44826;51.596;5.624;2022-12-17T03:16:11;37.17;;;15.67;;
59042;SDS011;44826;51.596;5.624;2022-12-17T03:18:56;37.67;;;16.33;;
59042;SDS011;44826;51.596;5.624;2022-12-17T03:21:40;36.13;;;15.97;;
59042;SDS011;44826;51.596;5.624;2022-12-17T03:24:24;35.53;;;15.07;;
59042;SDS011;44826;51.596;5.624;2022-12-17T03:27:08;40.20;;;16.83;;
59042;SDS011;44826;51.596;5.624;2022-12-17T03:29:52;36.07;;;15.10;;
59042;SDS011;44826;51.596;5.624;2022-12-17T03:32:35;43.07;;;16.77;;
59042;SDS011;44826;51.596;5.624;2022-12-17T03:35:19;38.13;;;16.63;;
59042;SDS011;44826;51.596;5.624;2022-12-17T03:38:07;37.43;;;16.27;;
59042;SDS011;44826;51.596;5.624;2022-12-17T03:40:51;37.63;;;15.87;;
59042;SDS011;44826;51.596;5.624;2022-12-17T03:43:35;39.70;;;15.97;;
59042;SDS011;44826;51.596;5.624;2022-12-17T03:46:19;37.17;;;16.03;;
59042;SDS011;44826;51.596;5.624;2022-12-17T03:49:03;38.43;;;16.90;;
59042;SDS011;44826;51.596;5.624;2022-12-17T03:51:47;38.10;;;16.83;;
59042;SDS011;44826;51.596;5.624;2022-12-17T03:54:31;40.87;;;16.93;;
59042;SDS011;44826;51.596;5.624;2022-12-17T03:57:15;40.70;;;16.97;;
59042;SDS011;44826;51.596;5.624;2022-12-17T03:59:59;38.93;;;17.37;;
59042;SDS011;44826;51.596;5.624;2022-12-17T04:02:43;37.70;;;16.43;;
59042;SDS011;44826;51.596;5.624;2022-12-17T04:05:27;36.53;;;16.17;;
59042;SDS011;44826;51.596;5.624;2022-12-17T04:08:11;36.90;;;16.87;;
59042;SDS011;44826;51.596;5.624;2022-12-17T04:10:55;36.37;;;15.90;;
59042;SDS011;44826;51.596;5.624;2022-12-17T04:13:38;36.53;;;15.57;;
59042;SDS011;44826;51.596;5.624;2022-12-17T04:16:22;38.23;;;16.67;;
59042;SDS011;44826;51.596;5.624;2022-12-17T04:19:06;40.90;;;17.43;;
59042;SDS011;44826;51.596;5.624;2022-12-17T04:21:50;35.90;;;15.43;;
59042;SDS011;44826;51.596;5.624;2022-12-17T04:24:34;39.63;;;17.10;;
59042;SDS011;44826;51.596;5.624;2022-12-17T04:27:18;42.10;;;17.73;;
59042;SDS011;44826;51.596;5.624;2022-12-17T04:30:02;42.43;;;16.23;;
59042;SDS011;44826;51.596;5.624;2022-12-17T04:32:46;40.73;;;16.90;;
59042;SDS011;44826;51.596;5.624;2022-12-17T04:35:31;38.13;;;16.60;;
59042;SDS011;44826;51.596;5.624;2022-12-17T04:38:14;40.80;;;16.70;;
59042;SDS011;44826;51.596;5.624;2022-12-17T04:40:58;37.57;;;16.37;;
59042;SDS011;44826;51.596;5.624;2022-12-17T04:43:42;36.07;;;16.97;;
59042;SDS011;44826;51.596;5.624;2022-12-17T04:46:26;37.53;;;16.43;;
59042;SDS011;44826;51.596;5.624;2022-12-17T04:49:10;37.67;;;16.53;;
59042;SDS011;44826;51.596;5.624;2022-12-17T04:51:54;38.63;;;16.43;;
59042;SDS011;44826;51.596;5.624;2022-12-17T04:54:38;42.17;;;17.13;;
59042;SDS011;44826;51.596;5.624;2022-12-17T04:57:22;41.13;;;16.13;;
59042;SDS011;44826;51.596;5.624;2022-12-17T05:00:06;37.40;;;17.17;;
59042;SDS011;44826;51.596;5.624;2022-12-17T05:02:50;39.50;;;17.07;;
59042;SDS011;44826;51.596;5.624;2022-12-17T05:05:34;43.73;;;18.67;;
59042;SDS011;44826;51.596;5.624;2022-12-17T05:08:18;38.37;;;16.20;;
59042;SDS011;44826;51.596;5.624;2022-12-17T05:11:03;37.47;;;16.83;;
59042;SDS011;44826;51.596;5.624;2022-12-17T05:13:48;39.53;;;16.30;;
59042;SDS011;44826;51.596;5.624;2022-12-17T05:16:32;39.03;;;16.33;;
59042;SDS011;44826;51.596;5.624;2022-12-17T05:19:15;34.27;;;15.63;;
59042;SDS011;44826;51.596;5.624;2022-12-17T05:21:59;36.83;;;16.63;;
59042;SDS011;44826;51.596;5.624;2022-12-17T05:24:43;37.57;;;15.53;;
59042;SDS011;44826;51.596;5.624;2022-12-17T05:27:27;38.53;;;16.13;;
59042;SDS011;44826;51.596;5.624;2022-12-17T05:30:11;38.50;;;16.97;;
59042;SDS011;44826;51.596;5.624;2022-12-17T05:32:59;41.17;;;16.33;;
59042;SDS011;44826;51.596;5.624;2022-12-17T05:35:44;38.70;;;16.40;;
59042;SDS011;44826;51.596;5.624;2022-12-17T05:38:28;40.33;;;16.77;;
59042;SDS011;44826;51.596;5.624;2022-12-17T05:41:12;41.40;;;16.73;;
59042;SDS011;44826;51.596;5.624;2022-12-17T05:43:56;41.37;;;16.37;;
59042;SDS011;44826;51.596;5.624;2022-12-17T05:46:40;40.63;;;16.30;;
59042;SDS011;44826;51.596;5.624;2022-12-17T05:49:24;39.90;;;17.17;;
59042;SDS011;44826;51.596;5.624;2022-12-17T05:52:08;38.53;;;16.33;;
59042;SDS011;44826;51.596;5.624;2022-12-17T05:54:51;43.97;;;16.83;;
59042;SDS011;44826;51.596;5.624;2022-12-17T05:57:35;46.13;;;17.60;;
59042;SDS011;44826;51.596;5.624;2022-12-17T06:00:19;42.87;;;16.80;;
59042;SDS011;44826;51.596;5.624;2022-12-17T06:03:03;40.33;;;16.70;;
59042;SDS011;44826;51.596;5.624;2022-12-17T06:05:47;37.23;;;15.93;;
59042;SDS011;44826;51.596;5.624;2022-12-17T06:08:35;40.13;;;17.80;;
59042;SDS011;44826;51.596;5.624;2022-12-17T06:11:19;42.73;;;17.27;;
59042;SDS011;44826;51.596;5.624;2022-12-17T06:14:03;40.57;;;16.50;;
59042;SDS011;44826;51.596;5.624;2022-12-17T06:16:47;40.83;;;16.70;;
59042;SDS011;44826;51.596;5.624;2022-12-17T06:19:31;39.93;;;16.20;;
59042;SDS011;44826;51.596;5.624;2022-12-17T06:22:14;44.47;;;16.43;;
59042;SDS011;44826;51.596;5.624;2022-12-17T06:24:58;37.60;;;16.80;;
59042;SDS011;44826;51.596;5.624;2022-12-17T06:27:42;40.53;;;15.70;;
59042;SDS011;44826;51.596;5.624;2022-12-17T06:30:26;41.43;;;16.10;;
59042;SDS011;44826;51.596;5.624;2022-12-17T06:33:10;40.53;;;15.93;;
59042;SDS011;44826;51.596;5.624;2022-12-17T06:35:55;44.13;;;17.67;;
59042;SDS011;44826;51.596;5.624;2022-12-17T06:38:40;39.03;;;16.70;;
59042;SDS011;44826;51.596;5.624;2022-12-17T06:41:24;42.90;;;17.63;;
59042;SDS011;44826;51.596;5.624;2022-12-17T06:44:08;42.30;;;18.37;;
59042;SDS011;44826;51.596;5.624;2022-12-17T06:46:51;41.77;;;17.13;;
59042;SDS011;44826;51.596;5.624;2022-12-17T06:49:35;39.33;;;16.80;;
59042;SDS011;44826;51.596;5.624;2022-12-17T06:52:19;39.17;;;17.20;;
59042;SDS011;44826;51.596;5.624;2022-12-17T06:55:03;42.37;;;17.80;;
59042;SDS011;44826;51.596;5.624;2022-12-17T06:57:48;37.73;;;16.70;;
59042;SDS011;44826;51.596;5.624;2022-12-17T07:00:38;43.13;;;16.87;;
59042;SDS011;44826;51.596;5.624;2022-12-17T07:03:22;41.23;;;16.07;;
59042;SDS011;44826;51.596;5.624;2022-12-17T07:06:06;41.77;;;18.00;;
59042;SDS011;44826;51.596;5.624;2022-12-17T07:08:50;43.80;;;17.43;;
59042;SDS011;44826;51.596;5.624;2022-12-17T07:11:34;41.77;;;18.10;;
59042;SDS011;44826;51.596;5.624;2022-12-17T07:14:18;41.63;;;17.07;;
59042;SDS011;44826;51.596;5.624;2022-12-17T07:17:02;41.60;;;18.50;;
59042;SDS011;44826;51.596;5.624;2022-12-17T07:19:46;41.93;;;16.67;;
59042;SDS011;44826;51.596;5.624;2022-12-17T07:22:30;41.57;;;17.33;;
59042;SDS011;44826;51.596;5.624;2022-12-17T07:25:22;43.45;;;19.20;;
59042;SDS011;44826;51.596;5.624;2022-12-17T07:28:06;43.20;;;18.47;;
59042;SDS011;44826;51.596;5.624;2022-12-17T07:30:50;44.97;;;18.57;;
59042;SDS011;44826;51.596;5.624;2022-12-17T07:33:34;45.70;;;18.03;;
59042;SDS011;44826;51.596;5.624;2022-12-17T07:36:17;42.47;;;18.00;;
59042;SDS011;44826;51.596;5.624;2022-12-17T07:39:01;45.33;;;18.70;;
59042;SDS011;44826;51.596;5.624;2022-12-17T07:41:45;40.17;;;17.07;;
59042;SDS011;44826;51.596;5.624;2022-12-17T07:44:29;42.57;;;17.97;;
59042;SDS011;44826;51.596;5.624;2022-12-17T07:47:13;40.70;;;17.50;;
59042;SDS011;44826;51.596;5.624;2022-12-17T07:49:57;38.77;;;16.60;;
59042;SDS011;44826;51.596;5.624;2022-12-17T07:52:41;42.97;;;17.67;;
59042;SDS011;44826;51.596;5.624;2022-12-17T07:55:25;43.60;;;18.30;;
59042;SDS011;44826;51.596;5.624;2022-12-17T07:58:09;46.47;;;18.97;;
59042;SDS011;44826;51.596;5.624;2022-12-17T08:00:54;45.00;;;18.07;;
59042;SDS011;44826;51.596;5.624;2022-12-17T08:03:38;46.53;;;18.13;;
59042;SDS011;44826;51.596;5.624;2022-12-17T08:06:22;45.33;;;18.33;;
59042;SDS011;44826;51.596;5.624;2022-12-17T08:09:06;38.13;;;17.10;;
59042;SDS011;44826;51.596;5.624;2022-12-17T08:11:50;46.63;;;19.07;;
59042;SDS011;44826;51.596;5.624;2022-12-17T08:14:34;43.10;;;18.97;;
59042;SDS011;44826;51.596;5.624;2022-12-17T08:17:18;43.63;;;20.10;;
59042;SDS011;44826;51.596;5.624;2022-12-17T08:20:02;42.30;;;17.80;;
59042;SDS011;44826;51.596;5.624;2022-12-17T08:22:46;40.50;;;17.03;;
59042;SDS011;44826;51.596;5.624;2022-12-17T08:25:30;43.57;;;18.43;;
59042;SDS011;44826;51.596;5.624;2022-12-17T08:28:14;40.13;;;17.93;;
59042;SDS011;44826;51.596;5.624;2022-12-17T08:30:58;40.63;;;17.60;;
59042;SDS011;44826;51.596;5.624;2022-12-17T08:33:42;41.03;;;17.17;;
59042;SDS011;44826;51.596;5.624;2022-12-17T08:36:26;41.47;;;17.23;;
59042;SDS011;44826;51.596;5.624;2022-12-17T08:39:10;47.37;;;19.30;;
59042;SDS011;44826;51.596;5.624;2022-12-17T08:41:54;44.97;;;19.40;;
59042;SDS011;44826;51.596;5.624;2022-12-17T08:44:38;45.43;;;18.60;;
59042;SDS011;44826;51.596;5.624;2022-12-17T08:47:22;40.53;;;17.37;;
59042;SDS011;44826;51.596;5.624;2022-12-17T08:50:06;43.67;;;18.57;;
59042;SDS011;44826;51.596;5.624;2022-12-17T08:52:57;40.40;;;17.33;;
59042;SDS011;44826;51.596;5.624;2022-12-17T08:55:42;42.65;;;17.38;;
59042;SDS011;44826;51.596;5.624;2022-12-17T08:58:26;44.90;;;18.53;;
59042;SDS011;44826;51.596;5.624;2022-12-17T09:01:10;39.90;;;16.07;;
59042;SDS011;44826;51.596;5.624;2022-12-17T09:03:54;41.03;;;17.70;;
59042;SDS011;44826;51.596;5.624;2022-12-17T09:06:38;45.17;;;19.47;;
59042;SDS011;44826;51.596;5.624;2022-12-17T09:09:22;41.50;;;17.77;;
59042;SDS011;44826;51.596;5.624;2022-12-17T09:12:06;39.40;;;17.07;;
59042;SDS011;44826;51.596;5.624;2022-12-17T09:14:50;46.00;;;20.40;;
59042;SDS011;44826;51.596;5.624;2022-12-17T09:17:34;45.37;;;20.03;;
59042;SDS011;44826;51.596;5.624;2022-12-17T09:20:18;46.17;;;19.07;;
59042;SDS011;44826;51.596;5.624;2022-12-17T09:23:02;46.77;;;19.13;;
59042;SDS011;44826;51.596;5.624;2022-12-17T09:25:52;42.60;;;17.30;;
59042;SDS011;44826;51.596;5.624;2022-12-17T09:28:38;47.50;;;19.30;;
59042;SDS011;44826;51.596;5.624;2022-12-17T09:31:21;43.03;;;17.87;;
59042;SDS011;44826;51.596;5.624;2022-12-17T09:34:06;45.67;;;17.60;;
59042;SDS011;44826;51.596;5.624;2022-12-17T09:36:50;41.43;;;17.13;;
59042;SDS011;44826;51.596;5.624;2022-12-17T09:39:34;42.13;;;16.87;;
59042;SDS011;44826;51.596;5.624;2022-12-17T09:51:23;41.23;;;16.60;;
59042;SDS011;44826;51.596;5.624;2022-12-17T09:54:15;41.83;;;17.30;;
59042;SDS011;44826;51.596;5.624;2022-12-17T09:57:11;45.37;;;17.90;;
59042;SDS011;44826;51.596;5.624;2022-12-17T09:59:58;47.20;;;18.93;;
59042;SDS011;44826;51.596;5.624;2022-12-17T10:02:42;47.47;;;19.43;;
59042;SDS011;44826;51.596;5.624;2022-12-17T10:05:27;43.87;;;17.83;;
59042;SDS011;44826;51.596;5.624;2022-12-17T10:08:15;43.20;;;17.37;;
59042;SDS011;44826;51.596;5.624;2022-12-17T10:11:22;45.00;;;18.57;;
59042;SDS011;44826;51.596;5.624;2022-12-17T10:14:22;51.13;;;18.93;;
59042;SDS011;44826;51.596;5.624;2022-12-17T10:17:18;42.93;;;18.23;;
59042;SDS011;44826;51.596;5.624;2022-12-17T10:20:49;48.73;;;19.07;;
59042;SDS011;44826;51.596;5.624;2022-12-17T10:23:26;44.37;;;17.23;;
59042;SDS011;44826;51.596;5.624;2022-12-17T10:26:15;45.77;;;18.10;;
59042;SDS011;44826;51.596;5.624;2022-12-17T10:29:09;56.63;;;20.67;;
59042;SDS011;44826;51.596;5.624;2022-12-17T10:31:57;44.97;;;17.90;;
59042;SDS011;44826;51.596;5.624;2022-12-17T10:34:44;46.80;;;18.23;;
59042;SDS011;44826;51.596;5.624;2022-12-17T10:37:29;43.00;;;17.87;;
59042;SDS011;44826;51.596;5.624;2022-12-17T10:40:27;46.07;;;17.53;;
59042;SDS011;44826;51.596;5.624;2022-12-17T10:43:47;43.10;;;16.80;;
59042;SDS011;44826;51.596;5.624;2022-12-17T10:46:25;47.50;;;18.23;;
59042;SDS011;44826;51.596;5.624;2022-12-17T10:49:15;43.10;;;18.33;;
59042;SDS011;44826;51.596;5.624;2022-12-17T10:52:03;45.50;;;18.20;;
59042;SDS011;44826;51.596;5.624;2022-12-17T10:54:55;46.07;;;17.50;;
59042;SDS011;44826;51.596;5.624;2022-12-17T10:57:42;47.53;;;18.40;;
59042;SDS011;44826;51.596;5.624;2022-12-17T11:00:33;41.20;;;16.17;;
59042;SDS011;44826;51.596;5.624;2022-12-17T11:06:40;42.63;;;17.37;;
59042;SDS011;44826;51.596;5.624;2022-12-17T11:12:19;50.37;;;20.20;;
59042;SDS011;44826;51.596;5.624;2022-12-17T11:15:18;45.03;;;17.57;;
59042;SDS011;44826;51.596;5.624;2022-12-17T11:18:10;42.13;;;16.80;;
59042;SDS011;44826;51.596;5.624;2022-12-17T11:23:48;43.93;;;16.80;;
59042;SDS011;44826;51.596;5.624;2022-12-17T11:26:35;44.17;;;17.40;;
59042;SDS011;44826;51.596;5.624;2022-12-17T11:29:21;46.93;;;18.03;;
59042;SDS011;44826;51.596;5.624;2022-12-17T11:35:15;47.10;;;18.33;;
59042;SDS011;44826;51.596;5.624;2022-12-17T11:38:12;45.70;;;16.90;;
59042;SDS011;44826;51.596;5.624;2022-12-17T11:41:14;44.97;;;16.17;;
59042;SDS011;44826;51.596;5.624;2022-12-17T11:47:37;41.17;;;16.23;;
59042;SDS011;44826;51.596;5.624;2022-12-17T11:50:34;40.47;;;16.10;;
59042;SDS011;44826;51.596;5.624;2022-12-17T11:56:37;39.90;;;15.13;;
59042;SDS011;44826;51.596;5.624;2022-12-17T11:59:44;37.67;;;15.17;;
59042;SDS011;44826;51.596;5.624;2022-12-17T12:05:46;41.30;;;16.30;;
59042;SDS011;44826;51.596;5.624;2022-12-17T12:09:01;40.73;;;16.07;;
59042;SDS011;44826;51.596;5.624;2022-12-17T12:12:09;45.90;;;17.50;;
59042;SDS011;44826;51.596;5.624;2022-12-17T12:18:02;43.97;;;16.33;;
59042;SDS011;44826;51.596;5.624;2022-12-17T12:29:53;48.73;;;18.97;;
59042;SDS011;44826;51.596;5.624;2022-12-17T12:35:46;59.90;;;26.20;;
59042;SDS011;44826;51.596;5.624;2022-12-17T12:38:35;46.47;;;19.37;;
59042;SDS011;44826;51.596;5.624;2022-12-17T12:44:31;57.47;;;22.00;;
59042;SDS011;44826;51.596;5.624;2022-12-17T12:47:24;88.17;;;31.60;;
59042;SDS011;44826;51.596;5.624;2022-12-17T12:50:29;59.53;;;22.90;;
59042;SDS011;44826;51.596;5.624;2022-12-17T12:53:23;57.37;;;22.20;;
59042;SDS011;44826;51.596;5.624;2022-12-17T12:59:23;51.07;;;18.97;;
59042;SDS011;44826;51.596;5.624;2022-12-17T13:05:02;49.13;;;18.97;;
59042;SDS011;44826;51.596;5.624;2022-12-17T13:07:48;44.70;;;17.70;;
59042;SDS011;44826;51.596;5.624;2022-12-17T13:10:29;47.13;;;17.83;;
59042;SDS011;44826;51.596;5.624;2022-12-17T13:12:55;44.30;;;18.33;;
59042;SDS011;44826;51.596;5.624;2022-12-17T13:15:31;48.37;;;20.93;;
59042;SDS011;44826;51.596;5.624;2022-12-17T13:21:04;46.33;;;18.07;;
59042;SDS011;44826;51.596;5.624;2022-12-17T13:23:47;44.07;;;17.37;;
59042;SDS011;44826;51.596;5.624;2022-12-17T13:26:17;44.70;;;17.87;;
59042;SDS011;44826;51.596;5.624;2022-12-17T13:31:19;48.10;;;19.30;;
59042;SDS011;44826;51.596;5.624;2022-12-17T13:33:57;45.00;;;17.48;;
59042;SDS011;44826;51.596;5.624;2022-12-17T13:39:01;49.20;;;17.67;;
59042;SDS011;44826;51.596;5.624;2022-12-17T13:41:37;43.97;;;17.43;;
59042;SDS011;44826;51.596;5.624;2022-12-17T13:44:11;41.77;;;15.23;;
59042;SDS011;44826;51.596;5.624;2022-12-17T13:46:43;47.80;;;16.83;;
59042;SDS011;44826;51.596;5.624;2022-12-17T13:51:41;45.80;;;16.65;;
59042;SDS011;44826;51.596;5.624;2022-12-17T13:54:11;43.93;;;16.57;;
59042;SDS011;44826;51.596;5.624;2022-12-17T13:56:40;39.30;;;14.73;;
59042;SDS011;44826;51.596;5.624;2022-12-17T13:59:05;42.70;;;16.10;;
59042;SDS011;44826;51.596;5.624;2022-12-17T14:01:31;41.93;;;15.77;;
59042;SDS011;44826;51.596;5.624;2022-12-17T14:03:59;38.50;;;14.50;;
59042;SDS011;44826;51.596;5.624;2022-12-17T14:06:31;40.20;;;15.50;;
59042;SDS011;44826;51.596;5.624;2022-12-17T14:08:58;39.80;;;14.67;;
59042;SDS011;44826;51.596;5.624;2022-12-17T14:11:25;39.80;;;15.50;;
59042;SDS011;44826;51.596;5.624;2022-12-17T14:14:20;43.60;;;15.57;;
59042;SDS011;44826;51.596;5.624;2022-12-17T14:16:55;39.03;;;14.83;;
59042;SDS011;44826;51.596;5.624;2022-12-17T14:19:21;35.57;;;13.70;;
59042;SDS011;44826;51.596;5.624;2022-12-17T14:21:48;38.77;;;15.00;;
59042;SDS011;44826;51.596;5.624;2022-12-17T14:24:13;37.60;;;15.03;;
59042;SDS011;44826;51.596;5.624;2022-12-17T14:26:49;41.83;;;16.13;;
59042;SDS011;44826;51.596;5.624;2022-12-17T14:29:21;38.97;;;14.80;;
59042;SDS011;44826;51.596;5.624;2022-12-17T14:31:54;37.83;;;14.60;;
59042;SDS011;44826;51.596;5.624;2022-12-17T14:34:22;38.50;;;14.93;;
59042;SDS011;44826;51.596;5.624;2022-12-17T14:36:52;37.83;;;14.00;;
59042;SDS011;44826;51.596;5.624;2022-12-17T14:41:49;39.97;;;13.83;;
59042;SDS011;44826;51.596;5.624;2022-12-17T14:44:34;39.00;;;13.57;;
59042;SDS011;44826;51.596;5.624;2022-12-17T14:47:06;40.50;;;14.27;;
59042;SDS011;44826;51.596;5.624;2022-12-17T14:49:38;38.33;;;13.23;;
59042;SDS011;44826;51.596;5.624;2022-12-17T14:52:18;36.77;;;13.57;;
59042;SDS011;44826;51.596;5.624;2022-12-17T14:54:49;35.90;;;12.67;;
59042;SDS011;44826;51.596;5.624;2022-12-17T14:57:19;37.90;;;14.23;;
59042;SDS011;44826;51.596;5.624;2022-12-17T14:59:45;45.13;;;17.23;;
59042;SDS011;44826;51.596;5.624;2022-12-17T15:04:42;40.65;;;14.82;;
59042;SDS011;44826;51.596;5.624;2022-12-17T15:07:09;40.47;;;14.83;;
59042;SDS011;44826;51.596;5.624;2022-12-17T15:09:38;45.77;;;16.60;;
59042;SDS011;44826;51.596;5.624;2022-12-17T15:12:04;37.77;;;15.17;;
59042;SDS011;44826;51.596;5.624;2022-12-17T15:14:30;41.03;;;15.33;;
59042;SDS011;44826;51.596;5.624;2022-12-17T15:16:55;38.30;;;14.53;;
59042;SDS011;44826;51.596;5.624;2022-12-17T15:19:22;44.10;;;15.87;;
59042;SDS011;44826;51.596;5.624;2022-12-17T15:21:48;40.30;;;14.53;;
59042;SDS011;44826;51.596;5.624;2022-12-17T15:24:14;38.87;;;14.50;;
59042;SDS011;44826;51.596;5.624;2022-12-17T15:26:43;39.20;;;14.57;;
59042;SDS011;44826;51.596;5.624;2022-12-17T15:29:09;38.80;;;14.80;;
59042;SDS011;44826;51.596;5.624;2022-12-17T15:31:34;43.10;;;15.90;;
59042;SDS011;44826;51.596;5.624;2022-12-17T15:33:59;39.67;;;15.60;;
59042;SDS011;44826;51.596;5.624;2022-12-17T15:36:25;39.53;;;14.67;;
59042;SDS011;44826;51.596;5.624;2022-12-17T15:38:50;45.03;;;14.80;;
59042;SDS011;44826;51.596;5.624;2022-12-17T15:41:15;36.93;;;14.67;;
59042;SDS011;44826;51.596;5.624;2022-12-17T15:43:59;37.20;;;14.07;;
59042;SDS011;44826;51.596;5.624;2022-12-17T15:46:25;39.37;;;14.23;;
59042;SDS011;44826;51.596;5.624;2022-12-17T15:48:50;38.50;;;13.20;;
59042;SDS011;44826;51.596;5.624;2022-12-17T15:51:15;38.20;;;14.70;;
59042;SDS011;44826;51.596;5.624;2022-12-17T15:53:41;38.33;;;14.53;;
59042;SDS011;44826;51.596;5.624;2022-12-17T15:56:14;43.17;;;16.43;;
59042;SDS011;44826;51.596;5.624;2022-12-17T15:58:47;39.43;;;14.77;;
59042;SDS011;44826;51.596;5.624;2022-12-17T16:01:12;44.00;;;15.20;;
59042;SDS011;44826;51.596;5.624;2022-12-17T16:03:38;38.17;;;13.90;;
59042;SDS011;44826;51.596;5.624;2022-12-17T16:06:03;40.10;;;13.67;;
59042;SDS011;44826;51.596;5.624;2022-12-17T16:08:29;41.07;;;14.37;;
59042;SDS011;44826;51.596;5.624;2022-12-17T16:10:54;36.73;;;13.43;;
59042;SDS011;44826;51.596;5.624;2022-12-17T16:13:20;39.53;;;13.37;;
59042;SDS011;44826;51.596;5.624;2022-12-17T16:15:45;34.67;;;12.27;;
59042;SDS011;44826;51.596;5.624;2022-12-17T16:18:19;40.70;;;13.63;;
59042;SDS011;44826;51.596;5.624;2022-12-17T16:20:46;37.50;;;13.17;;
59042;SDS011;44826;51.596;5.624;2022-12-17T16:23:11;38.17;;;13.43;;
59042;SDS011;44826;51.596;5.624;2022-12-17T16:25:37;36.07;;;13.40;;
59042;SDS011;44826;51.596;5.624;2022-12-17T16:28:02;40.00;;;15.67;;
59042;SDS011;44826;51.596;5.624;2022-12-17T16:30:27;37.00;;;12.73;;
59042;SDS011;44826;51.596;5.624;2022-12-17T16:32:53;39.27;;;14.07;;
59042;SDS011;44826;51.596;5.624;2022-12-17T16:35:22;46.93;;;17.20;;
59042;SDS011;44826;51.596;5.624;2022-12-17T16:37:48;39.70;;;14.73;;
59042;SDS011;44826;51.596;5.624;2022-12-17T16:40:13;43.23;;;15.63;;
59042;SDS011;44826;51.596;5.624;2022-12-17T16:42:38;37.77;;;14.90;;
59042;SDS011;44826;51.596;5.624;2022-12-17T16:45:04;42.00;;;15.77;;
59042;SDS011;44826;51.596;5.624;2022-12-17T16:47:30;45.93;;;16.30;;
59042;SDS011;44826;51.596;5.624;2022-12-17T16:49:55;46.87;;;15.57;;
59042;SDS011;44826;51.596;5.624;2022-12-17T16:52:20;42.30;;;15.80;;
59042;SDS011;44826;51.596;5.624;2022-12-17T16:54:45;38.37;;;14.63;;
59042;SDS011;44826;51.596;5.624;2022-12-17T16:57:11;42.27;;;15.30;;
59042;SDS011;44826;51.596;5.624;2022-12-17T16:59:36;43.27;;;15.33;;
59042;SDS011;44826;51.596;5.624;2022-12-17T17:02:01;40.80;;;14.70;;
59042;SDS011;44826;51.596;5.624;2022-12-17T17:04:26;39.07;;;13.73;;